Time;durP1;ratioP1;P1;durP2;ratioP2;P2;SDS_P1;SDS_P2;PMS_P1;PMS_P2;Temp;Humidity;BMP_temperature;BMP_pressure;BME280_temperature;BME280_humidity;BME280_pressure;Samples;Min_cycle;Max_cycle;Signal;HPM_P1;HPM_P2
2023/01/27 00:02:16;;;;;;;69.13;20.90;;;1.60;99.90;;;;;;5070596;28;20490;-59
2023/01/27 00:04:43;;;;;;;66.90;23.77;;;;;;;;;;5040559;28;20475;-59
2023/01/27 00:07:10;;;;;;;69.63;20.30;;;;;;;;;;5071033;28;20512;-58
2023/01/27 00:09:37;;;;;;;63.13;19.97;;;;;;;;;;5049113;28;20480;-58
2023/01/27 00:14:49;;;;;;;80.70;22.63;;;1.80;99.90;;;;;;5060055;28;20484;-58
2023/01/27 00:17:17;;;;;;;56.53;18.27;;;1.90;99.90;;;;;;5056153;28;20519;-58
2023/01/27 00:19:43;;;;;;;61.83;22.20;;;2.00;99.90;;;;;;5080689;28;20511;-58
2023/01/27 00:24:54;;;;;;;67.30;19.80;;;2.00;99.90;;;;;;5053761;28;20919;-58
2023/01/27 00:27:21;;;;;;;49.17;19.17;;;2.00;99.90;;;;;;5051508;27;20871;-58
2023/01/27 00:29:48;;;;;;;75.90;23.67;;;2.00;99.90;;;;;;5074491;27;20487;-58
2023/01/27 00:35:00;;;;;;;60.30;19.80;;;;;;;;;;5057378;28;20744;-58
2023/01/27 00:37:27;;;;;;;54.20;16.23;;;;;;;;;;5057407;27;20489;-58
2023/01/27 00:39:54;;;;;;;57.27;18.60;;;;;;;;;;5080128;27;20483;-59
2023/01/27 00:42:21;;;;;;;53.80;19.40;;;2.00;99.90;;;;;;5040132;28;20471;-59
2023/01/27 00:47:28;;;;;;;76.30;20.80;;;2.00;99.90;;;;;;5052700;28;20477;-58
2023/01/27 00:49:55;;;;;;;66.40;19.77;;;;;;;;;;5071287;28;20784;-59
2023/01/27 00:52:23;;;;;;;64.87;18.13;;;2.20;99.90;;;;;;5067839;28;20486;-58
2023/01/27 00:54:50;;;;;;;77.20;23.40;;;2.30;99.90;;;;;;5079612;28;20473;-59
2023/01/27 00:57:17;;;;;;;54.17;17.23;;;2.40;99.90;;;;;;5046348;28;20575;-59
2023/01/27 00:59:44;;;;;;;49.57;18.13;;;2.50;99.90;;;;;;5081395;28;21927;-58
2023/01/27 01:02:10;;;;;;;60.70;19.17;;;2.50;99.90;;;;;;5045257;28;20475;-58
2023/01/27 01:04:37;;;;;;;58.37;20.90;;;2.60;99.90;;;;;;5077647;28;20525;-59
2023/01/27 01:07:04;;;;;;;50.13;16.57;;;;;;;;;;5070648;28;20473;-59
2023/01/27 01:09:32;;;;;;;57.80;18.10;;;2.70;99.90;;;;;;5055240;28;20632;-59
2023/01/27 01:11:59;;;;;;;58.93;17.93;;;2.80;99.90;;;;;;5048109;28;21282;-59
2023/01/27 01:14:26;;;;;;;51.53;16.50;;;;;;;;;;5059575;28;20508;-59
2023/01/27 01:16:55;;;;;;;69.60;22.63;;;;;;;;;;5035772;28;20855;-59
2023/01/27 01:19:22;;;;;;;67.03;19.43;;;2.80;99.90;;;;;;5058157;28;20539;-59
2023/01/27 01:21:48;;;;;;;87.07;24.17;;;2.60;99.90;;;;;;5052156;28;20479;-59
2023/01/27 01:24:15;;;;;;;43.70;16.73;;;2.50;99.90;;;;;;5049626;28;20469;-59
2023/01/27 01:26:43;;;;;;;83.00;23.67;;;2.40;99.90;;;;;;5045657;28;20565;-59
2023/01/27 01:29:10;;;;;;;53.33;16.00;;;2.50;99.90;;;;;;5072065;28;20483;-60
2023/01/27 01:31:37;;;;;;;53.50;18.17;;;;;;;;;;5071518;28;20481;-59
2023/01/27 01:34:04;;;;;;;54.90;19.43;;;2.70;99.90;;;;;;5053729;28;21255;-59
2023/01/27 01:36:30;;;;;;;65.90;20.67;;;1.40;99.90;;;;;;5059677;28;20530;-59
2023/01/27 01:38:57;;;;;;;69.20;20.60;;;2.80;99.90;;;;;;5053453;28;20470;-59
2023/01/27 01:41:24;;;;;;;61.47;19.90;;;2.80;99.90;;;;;;5079816;28;21365;-59
2023/01/27 01:43:53;;;;;;;56.20;18.90;;;2.90;99.90;;;;;;5060835;28;20869;-59
2023/01/27 01:46:20;;;;;;;57.27;20.27;;;2.90;99.90;;;;;;5049053;28;20481;-59
2023/01/27 01:48:49;;;;;;;66.10;22.20;;;;;;;;;;5027721;28;20494;-59
2023/01/27 01:51:19;;;;;;;52.33;19.50;;;2.90;99.90;;;;;;5075068;28;20528;-59
2023/01/27 01:53:49;;;;;;;69.33;19.90;;;;;;;;;;5040193;28;20544;-59
2023/01/27 01:56:25;;;;;;;53.03;17.87;;;2.80;99.90;;;;;;5070072;28;20523;-59
2023/01/27 01:58:55;;;;;;;83.83;22.13;;;2.80;99.90;;;;;;5068250;28;20482;-59
2023/01/27 02:01:22;;;;;;;70.27;19.53;;;;;;;;;;5048158;28;20533;-59
2023/01/27 02:03:51;;;;;;;60.03;20.40;;;;;;;;;;5056223;27;20605;-59
2023/01/27 02:06:18;;;;;;;50.03;18.20;;;;;;;;;;5079583;28;20481;-59
2023/01/27 02:08:48;;;;;;;99.33;24.73;;;2.90;99.90;;;;;;5062464;28;20813;-59
2023/01/27 02:11:15;;;;;;;77.23;23.97;;;3.00;99.90;;;;;;5057064;28;20482;-59
2023/01/27 02:13:42;;;;;;;85.37;23.23;;;3.00;99.90;;;;;;5072407;28;21027;-59
2023/01/27 02:16:12;;;;;;;68.23;18.57;;;3.00;99.90;;;;;;5063363;28;20485;-59
2023/01/27 02:18:40;;;;;;;75.13;21.47;;;2.80;99.90;;;;;;5061515;28;20493;-59
2023/01/27 02:21:07;;;;;;;58.20;17.73;;;2.80;99.90;;;;;;5077882;28;20940;-59
2023/01/27 02:23:56;;;;;;;63.60;16.83;;;2.80;99.90;;;;;;5052978;28;20905;-59
2023/01/27 02:26:28;;;;;;;53.33;18.57;;;2.80;99.90;;;;;;5040798;28;20773;-60
2023/01/27 02:28:56;;;;;;;86.60;21.40;;;2.80;99.90;;;;;;5081326;28;20511;-59
2023/01/27 02:31:24;;;;;;;68.03;18.63;;;;;;;;;;5048581;28;20475;-59
2023/01/27 02:33:53;;;;;;;86.63;22.67;;;2.90;99.90;;;;;;5048745;28;20716;-59
2023/01/27 02:36:20;;;;;;;57.70;19.07;;;6.30;99.90;;;;;;5072469;28;20864;-59
2023/01/27 02:38:49;;;;;;;93.73;25.03;;;2.90;99.90;;;;;;5038008;28;20481;-59
2023/01/27 02:41:18;;;;;;;50.13;19.40;;;;;;;;;;5070152;28;20861;-59
2023/01/27 02:43:47;;;;;;;80.07;21.20;;;3.00;99.90;;;;;;5070821;28;20481;-59
2023/01/27 02:46:14;;;;;;;60.20;19.23;;;;;;;;;;5042844;28;20482;-59
2023/01/27 02:48:41;;;;;;;64.33;20.10;;;;;;;;;;5067464;28;20505;-59
2023/01/27 02:51:08;;;;;;;58.10;16.67;;;3.00;99.90;;;;;;5070269;28;20478;-59
2023/01/27 02:53:35;;;;;;;53.37;17.40;;;3.00;99.90;;;;;;5049616;28;20494;-59
2023/01/27 02:56:01;;;;;;;63.07;17.83;;;3.00;99.90;;;;;;5073688;28;20483;-59
2023/01/27 02:58:28;;;;;;;56.03;18.83;;;3.00;99.90;;;;;;5056404;28;20863;-59
2023/01/27 03:00:58;;;;;;;60.27;19.43;;;;;;;;;;5076010;28;21279;-59
2023/01/27 03:03:25;;;;;;;72.50;18.10;;;;;;;;;;5069814;28;20484;-59
2023/01/27 03:05:51;;;;;;;90.43;23.70;;;3.10;99.90;;;;;;5065596;28;20530;-59
2023/01/27 03:08:18;;;;;;;60.80;19.57;;;3.10;99.90;;;;;;5061497;28;20489;-59
2023/01/27 03:10:45;;;;;;;109.97;26.13;;;;;;;;;;5076680;28;20494;-59
2023/01/27 03:13:12;;;;;;;52.80;18.27;;;3.20;99.90;;;;;;5062556;28;20907;-59
2023/01/27 03:18:26;;;;;;;63.47;18.57;;;;;;;;;;5048667;28;20532;-59
2023/01/27 03:21:01;;;;;;;97.53;25.23;;;3.20;99.90;;;;;;5054910;28;20477;-59
2023/01/27 03:23:27;;;;;;;81.57;18.87;;;3.20;99.90;;;;;;5065158;28;20490;-58
2023/01/27 03:25:54;;;;;;;76.87;20.37;;;3.30;99.90;;;;;;5050753;28;20472;-59
2023/01/27 03:28:21;;;;;;;73.00;20.67;;;7.40;99.90;;;;;;5035252;28;20487;-59
2023/01/27 03:30:48;;;;;;;87.13;21.13;;;;;;;;;;5049262;28;20980;-59
2023/01/27 03:33:15;;;;;;;60.97;18.50;;;;;;;;;;5073731;28;20814;-59
2023/01/27 03:35:47;;;;;;;65.10;19.27;;;3.30;99.90;;;;;;5049537;28;20483;-59
2023/01/27 03:46:28;;;;;;;72.13;20.47;;;3.30;99.90;;;;;;5054437;28;20479;-59
2023/01/27 03:48:56;;;;;;;63.57;21.20;;;3.30;99.90;;;;;;5033442;28;20562;-59
2023/01/27 03:51:25;;;;;;;62.77;19.33;;;3.30;99.90;;;;;;5071009;28;20856;-59
2023/01/27 03:53:52;;;;;;;83.67;21.33;;;3.30;99.90;;;;;;5063138;28;20590;-59
2023/01/27 03:56:20;;;;;;;56.27;16.43;;;6.30;99.90;;;;;;5060410;28;20487;-59
2023/01/27 03:58:49;;;;;;;75.90;21.40;;;3.20;99.90;;;;;;5043111;28;21000;-59
2023/01/27 04:01:18;;;;;;;64.40;16.77;;;3.20;99.90;;;;;;5063426;28;21048;-59
2023/01/27 04:09:20;;;;;;;66.97;17.80;;;3.40;99.90;;;;;;5042815;28;20525;-58
2023/01/27 04:11:57;;;;;;;86.23;21.90;;;3.40;99.90;;;;;;5074002;28;20513;-59
2023/01/27 04:14:26;;;;;;;63.03;19.60;;;;;;;;;;5054015;28;20520;-59
2023/01/27 04:16:53;;;;;;;76.17;21.43;;;;;;;;;;5055944;28;20485;-59
2023/01/27 04:19:20;;;;;;;62.43;19.40;;;;;;;;;;5074115;28;20472;-59
2023/01/27 04:21:49;;;;;;;87.20;23.37;;;3.50;99.90;;;;;;5060982;28;20522;-59
2023/01/27 04:24:21;;;;;;;65.97;19.40;;;3.50;99.90;;;;;;5061771;28;20478;-59
2023/01/27 04:26:50;;;;;;;84.50;21.37;;;3.50;99.90;;;;;;5076730;28;20483;-59
2023/01/27 04:29:17;;;;;;;54.27;18.20;;;3.40;99.90;;;;;;5053932;28;20479;-59
2023/01/27 04:31:44;;;;;;;68.20;18.83;;;3.50;99.90;;;;;;5047487;28;20474;-58
2023/01/27 04:34:11;;;;;;;45.07;15.97;;;3.50;99.90;;;;;;5067918;28;20560;-59
2023/01/27 04:36:38;;;;;;;81.77;22.33;;;3.50;99.90;;;;;;5068724;28;20483;-59
2023/01/27 04:39:07;;;;;;;48.80;16.53;;;3.50;99.90;;;;;;5059832;28;20485;-59
2023/01/27 04:41:34;;;;;;;56.17;17.73;;;3.50;99.90;;;;;;5058133;28;21202;-58
2023/01/27 04:44:01;;;;;;;65.33;17.80;;;3.60;99.90;;;;;;5069202;28;20496;-58
2023/01/27 04:46:28;;;;;;;80.60;19.93;;;3.60;99.90;;;;;;5056303;28;20486;-59
2023/01/27 04:48:55;;;;;;;90.77;19.40;;;;;;;;;;5050806;28;20479;-59
2023/01/27 04:51:21;;;;;;;65.53;17.30;;;3.50;99.90;;;;;;5063488;28;21090;-58
2023/01/27 04:53:48;;;;;;;71.53;21.43;;;3.50;99.90;;;;;;5037830;28;20727;-58
2023/01/27 04:56:23;;;;;;;57.47;16.40;;;3.50;99.90;;;;;;5075701;28;20475;-59
2023/01/27 04:58:50;;;;;;;91.50;20.30;;;;;;;;;;5053667;28;20528;-59
2023/01/27 05:01:17;;;;;;;60.67;17.30;;;3.60;99.90;;;;;;5046336;28;20487;-59
2023/01/27 05:03:44;;;;;;;67.37;20.03;;;3.60;99.90;;;;;;5065172;28;20585;-59
2023/01/27 05:06:11;;;;;;;39.80;14.20;;;3.60;99.90;;;;;;5058099;28;20471;-59
2023/01/27 05:08:38;;;;;;;47.00;16.47;;;3.60;99.90;;;;;;5056261;28;20481;-59
2023/01/27 05:11:06;;;;;;;42.83;15.70;;;;;;;;;;5069004;28;20702;-59
2023/01/27 05:13:34;;;;;;;49.77;15.73;;;3.60;99.90;;;;;;5048347;28;20916;-59
2023/01/27 05:16:08;;;;;;;58.60;16.73;;;3.50;99.90;;;;;;5041200;28;20498;-59
2023/01/27 05:18:35;;;;;;;52.03;18.47;;;3.50;99.90;;;;;;5056655;28;20526;-59
2023/01/27 05:21:04;;;;;;;45.13;16.10;;;3.50;99.90;;;;;;5069985;28;20485;-59
2023/01/27 05:23:37;;;;;;;65.73;17.60;;;3.50;99.90;;;;;;5066053;28;20475;-59
2023/01/27 05:26:10;;;;;;;55.77;13.93;;;3.50;99.90;;;;;;5060689;28;20474;-59
2023/01/27 05:28:39;;;;;;;57.97;15.80;;;3.50;99.90;;;;;;5075852;28;20486;-59
2023/01/27 05:31:10;;;;;;;57.87;14.60;;;3.40;99.90;;;;;;5048607;28;20513;-59
2023/01/27 05:33:38;;;;;;;50.23;13.90;;;3.40;99.90;;;;;;5066826;28;20493;-59
2023/01/27 05:36:06;;;;;;;47.03;11.20;;;3.30;99.90;;;;;;5079070;28;20485;-59
2023/01/27 05:38:33;;;;;;;44.47;9.50;;;3.20;99.90;;;;;;5056252;28;20486;-59
2023/01/27 05:41:02;;;;;;;36.80;9.23;;;;;;;;;;5071962;28;20512;-60
2023/01/27 05:43:29;;;;;;;50.57;10.07;;;;;;;;;;5064178;28;21060;-59
2023/01/27 05:46:05;;;;;;;48.93;12.50;;;3.00;99.90;;;;;;5073675;28;20478;-59
2023/01/27 05:48:34;;;;;;;30.93;7.33;;;3.00;99.90;;;;;;5068739;28;20478;-59
2023/01/27 05:51:01;;;;;;;46.77;11.27;;;3.00;99.90;;;;;;5046288;28;20855;-59
2023/01/27 05:53:28;;;;;;;45.53;10.53;;;3.00;99.90;;;;;;5043557;28;20479;-59
2023/01/27 05:55:55;;;;;;;39.23;9.83;;;3.00;99.90;;;;;;5056268;28;20493;-59
2023/01/27 05:58:22;;;;;;;44.97;11.93;;;3.00;99.90;;;;;;5076238;28;20474;-59
2023/01/27 06:00:50;;;;;;;45.43;12.70;;;3.00;99.90;;;;;;5083511;28;20465;-59
2023/01/27 06:03:18;;;;;;;33.27;8.80;;;3.10;99.90;;;;;;5059295;28;20565;-59
2023/01/27 06:05:55;;;;;;;30.67;9.37;;;3.10;99.90;;;;;;5084099;28;21084;-59
2023/01/27 06:08:22;;;;;;;37.03;7.90;;;3.10;99.90;;;;;;5062642;28;20477;-59
2023/01/27 06:10:50;;;;;;;37.90;10.20;;;3.10;99.90;;;;;;5060182;28;20537;-59
2023/01/27 06:13:17;;;;;;;29.97;7.63;;;3.10;99.90;;;;;;5061583;28;20550;-59
2023/01/27 06:15:44;;;;;;;38.80;10.27;;;;;;;;;;5054110;28;20574;-59
2023/01/27 06:18:11;;;;;;;28.43;8.87;;;3.10;99.90;;;;;;5056065;28;20715;-59
2023/01/27 06:20:40;;;;;;;44.27;9.77;;;3.20;99.90;;;;;;5037714;28;20481;-59
2023/01/27 06:23:07;;;;;;;25.23;7.33;;;3.30;99.90;;;;;;5069061;28;20650;-59
2023/01/27 06:25:38;;;;;;;23.50;8.00;;;3.30;99.90;;;;;;5057427;28;20477;-59
2023/01/27 06:28:05;;;;;;;32.87;9.67;;;3.30;99.90;;;;;;5069178;28;20551;-59
2023/01/27 06:30:33;;;;;;;25.30;7.97;;;3.40;99.90;;;;;;5052237;28;21185;-58
2023/01/27 06:33:00;;;;;;;20.47;8.80;;;;;;;;;;5049358;28;20529;-59
2023/01/27 06:35:27;;;;;;;24.30;8.47;;;;;;;;;;5055558;28;21055;-58
2023/01/27 06:37:57;;;;;;;29.93;8.77;;;3.50;99.90;;;;;;5051191;28;20486;-59
2023/01/27 06:40:24;;;;;;;20.50;8.17;;;3.40;99.90;;;;;;5072330;28;20481;-59
2023/01/27 06:42:51;;;;;;;30.53;11.27;;;;;;;;;;5055141;28;20477;-58
2023/01/27 06:45:18;;;;;;;31.53;8.93;;;3.50;99.90;;;;;;5038615;28;20494;-59
2023/01/27 06:47:45;;;;;;;34.37;12.43;;;3.40;99.90;;;;;;5070795;28;20486;-59
2023/01/27 06:50:12;;;;;;;18.67;7.57;;;;;;;;;;5049597;28;20478;-59
2023/01/27 06:52:39;;;;;;;22.03;7.83;;;3.40;99.90;;;;;;5068261;28;20481;-59
2023/01/27 06:55:08;;;;;;;17.73;6.17;;;3.30;99.90;;;;;;5065273;28;20477;-59
2023/01/27 06:57:34;;;;;;;26.93;8.70;;;3.40;99.90;;;;;;5053766;28;20490;-59
2023/01/27 07:00:01;;;;;;;38.67;12.10;;;;;;;;;;5077346;28;20524;-59
2023/01/27 07:02:28;;;;;;;35.00;11.53;;;;;;;;;;5061876;28;20485;-59
2023/01/27 07:04:55;;;;;;;33.20;11.50;;;3.40;99.90;;;;;;5068047;28;20864;-59
2023/01/27 07:07:22;;;;;;;34.80;10.00;;;3.40;99.90;;;;;;5058745;28;21304;-59
2023/01/27 07:09:49;;;;;;;34.63;11.67;;;3.40;99.90;;;;;;5042845;28;20548;-59
2023/01/27 07:12:17;;;;;;;26.27;8.13;;;3.30;99.90;;;;;;5062220;28;20470;-59
2023/01/27 07:14:43;;;;;;;48.90;13.00;;;3.30;99.90;;;;;;5045089;28;20923;-59
2023/01/27 07:17:10;;;;;;;27.03;7.00;;;;;;;;;;5070585;28;20477;-59
2023/01/27 07:19:37;;;;;;;63.87;15.37;;;;;;;;;;5055063;28;20535;-59
2023/01/27 07:22:04;;;;;;;48.83;14.13;;;3.20;99.90;;;;;;5035805;28;20953;-59
2023/01/27 07:24:31;;;;;;;50.77;14.60;;;5.80;99.90;;;;;;5044385;28;20817;-58
2023/01/27 07:26:58;;;;;;;50.17;13.20;;;;;;;;;;5054968;28;20613;-59
2023/01/27 07:29:26;;;;;;;48.00;13.90;;;3.20;99.90;;;;;;5034156;28;20548;-59
2023/01/27 07:31:52;;;;;;;78.43;19.00;;;3.20;99.90;;;;;;5043409;28;20478;-59
2023/01/27 07:34:19;;;;;;;31.33;9.50;;;3.30;99.90;;;;;;5062523;28;20486;-59
2023/01/27 07:36:46;;;;;;;70.87;16.63;;;3.30;99.90;;;;;;5055528;28;20475;-59
2023/01/27 07:39:12;;;;;;;23.80;7.10;;;7.40;99.90;;;;;;5057542;28;20475;-59
2023/01/27 07:41:39;;;;;;;33.97;10.90;;;;;;;;;;5047916;28;20498;-58
2023/01/27 07:44:06;;;;;;;24.07;8.37;;;;;;;;;;5078161;27;20888;-59
2023/01/27 07:46:34;;;;;;;45.27;12.47;;;3.30;99.90;;;;;;5073804;28;20495;-58
2023/01/27 07:49:01;;;;;;;30.73;8.77;;;3.30;99.90;;;;;;5059734;28;20847;-58
2023/01/27 07:51:28;;;;;;;32.63;10.97;;;3.30;99.90;;;;;;5054492;28;20483;-59
2023/01/27 07:53:54;;;;;;;28.00;9.90;;;3.30;99.90;;;;;;5047459;28;20479;-59
2023/01/27 07:56:22;;;;;;;38.27;9.33;;;;;;;;;;5058013;28;20481;-59
2023/01/27 07:58:49;;;;;;;48.27;14.63;;;;;;;;;;5060706;28;20652;-58
2023/01/27 08:01:15;;;;;;;29.40;10.17;;;3.50;99.90;;;;;;5042608;28;20483;-58
2023/01/27 08:03:43;;;;;;;33.77;11.67;;;3.50;99.90;;;;;;5045164;28;20477;-58
2023/01/27 08:06:12;;;;;;;22.80;9.47;;;3.70;99.90;;;;;;5066215;28;20498;-58
2023/01/27 08:08:39;;;;;;;36.30;10.97;;;3.60;99.90;;;;;;5080238;28;20473;-59
2023/01/27 08:11:08;;;;;;;29.80;9.53;;;3.80;99.90;;;;;;5063932;28;20556;-59
2023/01/27 08:13:36;;;;;;;27.97;10.53;;;3.80;99.90;;;;;;5051723;28;20475;-58
2023/01/27 08:16:05;;;;;;;21.43;8.10;;;3.90;99.90;;;;;;5046712;28;20475;-58
2023/01/27 08:18:33;;;;;;;23.90;8.60;;;4.10;99.90;;;;;;5068856;27;21174;-58
2023/01/27 08:21:02;;;;;;;25.53;8.60;;;;;;;;;;5081076;28;20551;-59
2023/01/27 08:23:29;;;;;;;39.60;9.87;;;;;;;;;;5066565;28;20603;-59
2023/01/27 08:25:57;;;;;;;28.87;9.00;;;;;;;;;;5055749;28;20479;-58
2023/01/27 08:28:25;;;;;;;27.30;8.40;;;;;;;;;;5064453;28;20477;-59
2023/01/27 08:30:53;;;;;;;44.43;14.60;;;4.10;99.90;;;;;;5081338;27;20485;-59
2023/01/27 08:33:20;;;;;;;26.50;9.53;;;4.20;99.90;;;;;;5054549;28;20474;-59
2023/01/27 08:35:48;;;;;;;57.63;17.17;;;4.20;99.90;;;;;;5067477;28;20484;-59
2023/01/27 08:38:18;;;;;;;23.83;8.60;;;4.20;99.90;;;;;;5067489;27;20886;-59
2023/01/27 08:40:46;;;;;;;51.17;13.27;;;4.20;99.90;;;;;;5056183;28;20471;-59
2023/01/27 08:43:15;;;;;;;38.93;11.37;;;4.20;99.90;;;;;;5052352;28;20867;-58
2023/01/27 08:45:42;;;;;;;49.50;12.03;;;4.10;99.80;;;;;;5051633;28;20589;-59
2023/01/27 08:48:09;;;;;;;22.90;7.20;;;4.00;99.90;;;;;;5048426;28;20482;-58
2023/01/27 08:50:35;;;;;;;33.70;9.63;;;3.90;99.90;;;;;;5048233;28;20519;-59
2023/01/27 08:53:03;;;;;;;39.73;10.27;;;3.80;99.90;;;;;;5064456;28;20874;-58
2023/01/27 08:55:32;;;;;;;29.77;10.17;;;3.90;99.90;;;;;;5067461;28;20477;-59
2023/01/27 08:57:59;;;;;;;31.17;9.43;;;3.80;99.90;;;;;;5046237;28;20468;-59
2023/01/27 09:00:26;;;;;;;36.83;10.10;;;3.90;99.90;;;;;;5073618;28;20489;-59
2023/01/27 09:02:53;;;;;;;55.13;12.90;;;3.80;99.90;;;;;;5054534;28;20476;-59
2023/01/27 09:05:21;;;;;;;27.50;8.70;;;3.80;99.90;;;;;;5044610;28;20505;-59
2023/01/27 09:07:48;;;;;;;44.33;12.20;;;3.70;99.90;;;;;;5071332;28;20483;-59
2023/01/27 09:10:16;;;;;;;31.30;8.00;;;3.70;99.90;;;;;;5049177;28;21018;-59
2023/01/27 09:12:44;;;;;;;49.70;13.80;;;3.70;99.90;;;;;;5062473;27;21209;-59
2023/01/27 09:15:12;;;;;;;25.10;8.17;;;3.70;99.90;;;;;;5058674;28;20544;-59
2023/01/27 09:17:40;;;;;;;28.37;9.43;;;3.70;99.90;;;;;;5046676;28;20483;-59
2023/01/27 09:20:08;;;;;;;26.63;8.30;;;;;;;;;;5051085;28;20523;-59
2023/01/27 09:22:36;;;;;;;31.20;9.70;;;;;;;;;;5042459;28;21276;-59
2023/01/27 09:25:03;;;;;;;31.97;9.53;;;5.80;99.90;;;;;;5074909;28;20478;-58
2023/01/27 09:27:30;;;;;;;36.43;10.87;;;3.90;99.90;;;;;;5048064;28;20741;-59
2023/01/27 09:29:58;;;;;;;28.00;9.37;;;4.00;99.90;;;;;;5052613;28;20479;-59
2023/01/27 09:32:24;;;;;;;35.37;9.70;;;4.10;99.90;;;;;;5051502;28;20971;-58
2023/01/27 09:34:51;;;;;;;49.80;13.60;;;;;;;;;;5045002;28;21017;-59
2023/01/27 09:37:19;;;;;;;28.93;8.83;;;;;;;;;;5072246;28;20531;-59
2023/01/27 09:39:49;;;;;;;65.97;15.83;;;4.10;99.80;;;;;;5068214;27;20903;-58
2023/01/27 09:42:24;;;;;;;26.03;6.20;;;;;;;;;;5057240;28;20490;-59
2023/01/27 09:45:01;;;;;;;53.07;12.60;;;;;;;;;;5067943;27;20465;-59
2023/01/27 09:47:39;;;;;;;31.60;8.97;;;;;;;;;;5027406;28;20891;-59
2023/01/27 09:50:16;;;;;;;33.90;8.77;;;;;;;;;;5043937;28;20484;-59
2023/01/27 09:53:14;;;;;;;39.60;10.17;;;4.30;99.40;;;;;;5029187;28;20498;-59
2023/01/27 09:55:49;;;;;;;35.37;9.67;;;4.20;99.10;;;;;;5048549;27;20548;-59
2023/01/27 09:58:19;;;;;;;38.67;7.10;;;;;;;;;;5065024;27;20470;-59
2023/01/27 10:00:52;;;;;;;72.27;15.20;;;;;;;;;;5036056;28;20486;-59
2023/01/27 10:03:47;;;;;;;28.97;8.27;;;4.30;99.00;;;;;;5050350;28;20873;-59
2023/01/27 10:06:40;;;;;;;30.30;8.60;;;4.30;98.90;;;;;;5045304;28;20529;-59
2023/01/27 10:09:21;;;;;;;29.83;6.80;;;4.20;98.50;;;;;;5082957;27;21111;-59
2023/01/27 10:11:56;;;;;;;94.67;13.90;;;4.20;98.70;;;;;;5042738;28;20774;-59
2023/01/27 10:14:38;;;;;;;62.07;10.93;;;4.20;99.10;;;;;;5046416;28;21851;-59
2023/01/27 10:17:23;;;;;;;44.97;7.60;;;4.20;98.90;;;;;;5046197;28;20492;-59
2023/01/27 10:20:02;;;;;;;115.03;16.10;;;6.70;99.80;;;;;;5068905;27;20547;-59
2023/01/27 10:22:38;;;;;;;57.20;9.93;;;4.30;98.70;;;;;;5068262;28;20476;-59
2023/01/27 10:25:15;;;;;;;30.67;5.60;;;4.40;98.70;;;;;;5054442;28;20473;-59
2023/01/27 10:27:47;;;;;;;31.40;7.57;;;;;;;;;;5045386;28;20471;-59
2023/01/27 10:30:18;;;;;;;33.77;6.73;;;4.30;98.30;;;;;;5045243;28;20489;-59
2023/01/27 10:32:54;;;;;;;53.83;12.67;;;4.30;98.70;;;;;;5063543;27;20507;-59
2023/01/27 10:35:28;;;;;;;26.63;7.30;;;4.30;98.20;;;;;;5072190;28;20900;-59
2023/01/27 10:38:05;;;;;;;33.90;9.73;;;4.20;97.90;;;;;;5052613;28;20479;-59
2023/01/27 10:40:40;;;;;;;23.90;7.23;;;4.10;98.30;;;;;;5058205;28;20488;-59
2023/01/27 10:43:10;;;;;;;22.47;5.33;;;;;;;;;;5044179;28;20995;-59
2023/01/27 10:45:38;;;;;;;33.60;6.60;;;;;;;;;;5042351;28;20494;-60
2023/01/27 10:48:21;;;;;;;34.90;7.03;;;6.90;99.60;;;;;;5042414;28;20736;-59
2023/01/27 10:50:52;;;;;;;59.57;12.20;;;4.40;98.60;;;;;;5042824;28;21152;-59
2023/01/27 10:53:25;;;;;;;36.43;7.90;;;4.50;98.20;;;;;;5067607;28;20479;-59
2023/01/27 10:55:59;;;;;;;49.80;12.20;;;4.60;98.30;;;;;;5059363;28;21058;-59
2023/01/27 10:58:47;;;;;;;36.13;7.70;;;4.60;98.00;;;;;;5069064;28;20473;-59
2023/01/27 11:01:19;;;;;;;18.70;5.13;;;4.50;97.70;;;;;;5041601;28;20486;-59
2023/01/27 11:03:52;;;;;;;40.20;11.37;;;4.50;97.90;;;;;;5051901;28;20465;-59
2023/01/27 11:06:23;;;;;;;27.27;6.87;;;4.50;98.10;;;;;;5039926;28;20491;-59
2023/01/27 11:08:51;;;;;;;36.23;10.70;;;;;;;;;;5044643;28;20468;-59
2023/01/27 11:14:04;;;;;;;27.73;5.83;;;4.50;97.80;;;;;;5032771;28;20477;-59
2023/01/27 11:16:33;;;;;;;27.20;8.10;;;;;;;;;;5036612;28;20980;-59
2023/01/27 11:19:13;;;;;;;28.53;8.60;;;4.60;97.90;;;;;;5069494;28;20473;-59
2023/01/27 11:21:41;;;;;;;25.70;7.10;;;4.60;97.70;;;;;;5044057;27;20481;-59
2023/01/27 11:24:14;;;;;;;20.97;5.37;;;;;;;;;;5074177;27;20496;-59
2023/01/27 11:26:46;;;;;;;32.43;8.00;;;4.70;97.70;;;;;;5047590;28;20529;-59
2023/01/27 11:29:23;;;;;;;24.53;6.50;;;4.70;97.90;;;;;;5075418;27;20538;-59
2023/01/27 11:31:56;;;;;;;30.17;7.77;;;4.70;97.70;;;;;;5050727;27;20503;-59
2023/01/27 11:34:31;;;;;;;31.37;7.77;;;4.60;97.90;;;;;;5073423;27;20544;-60
2023/01/27 11:36:58;;;;;;;40.20;9.20;;;;;;;;;;5052794;28;21187;-59
2023/01/27 11:39:26;;;;;;;35.07;7.07;;;4.60;98.10;;;;;;5071106;27;20880;-59
2023/01/27 11:41:54;;;;;;;52.80;12.77;;;4.70;98.30;;;;;;5070198;28;20473;-59
2023/01/27 11:44:24;;;;;;;31.27;7.90;;;4.70;98.20;;;;;;5045274;28;20484;-59
2023/01/27 11:46:52;;;;;;;61.67;12.33;;;;;;;;;;5062570;28;20487;-59
2023/01/27 11:49:23;;;;;;;33.10;7.73;;;4.90;98.30;;;;;;5060502;28;20482;-59
2023/01/27 11:51:51;;;;;;;38.43;9.90;;;4.90;98.30;;;;;;5046697;28;20542;-59
2023/01/27 11:54:23;;;;;;;28.67;7.17;;;4.80;98.20;;;;;;5066459;28;20552;-59
2023/01/27 11:56:50;;;;;;;52.43;12.50;;;;;;;;;;5050155;28;20515;-59
2023/01/27 11:59:21;;;;;;;24.87;7.27;;;4.70;98.30;;;;;;5066501;28;20473;-59
2023/01/27 12:01:51;;;;;;;45.73;11.60;;;;;;;;;;5060022;28;20485;-59
2023/01/27 12:04:21;;;;;;;21.17;5.80;;;4.80;98.40;;;;;;5048524;28;20831;-59
2023/01/27 12:06:53;;;;;;;40.33;12.00;;;4.90;98.40;;;;;;5052833;28;20483;-59
2023/01/27 12:09:30;;;;;;;25.70;7.20;;;;;;;;;;5066584;28;20527;-59
2023/01/27 12:12:11;;;;;;;34.77;9.07;;;5.00;98.30;;;;;;5045492;28;20482;-59
2023/01/27 12:14:38;;;;;;;29.23;6.63;;;4.90;98.00;;;;;;5064983;28;20529;-59
2023/01/27 12:17:07;;;;;;;34.93;7.70;;;4.90;98.20;;;;;;5058255;28;20552;-59
2023/01/27 12:19:36;;;;;;;47.77;9.87;;;4.80;98.10;;;;;;5060389;28;20473;-59
2023/01/27 12:22:13;;;;;;;34.53;8.83;;;4.80;98.40;;;;;;5066458;28;20709;-59
2023/01/27 12:24:46;;;;;;;40.73;8.67;;;4.80;98.50;;;;;;5063467;28;20482;-59
2023/01/27 12:27:19;;;;;;;19.90;5.70;;;4.90;98.60;;;;;;5063002;28;20488;-59
2023/01/27 12:29:53;;;;;;;67.80;12.60;;;4.80;98.30;;;;;;5039173;28;20470;-59
2023/01/27 12:32:22;;;;;;;55.60;10.87;;;;;;;;;;5058584;28;20469;-58
2023/01/27 12:34:55;;;;;;;104.97;16.40;;;4.80;98.60;;;;;;5059169;28;20469;-58
2023/01/27 12:37:27;;;;;;;52.37;11.87;;;4.80;99.00;;;;;;5070231;28;20923;-59
2023/01/27 12:39:57;;;;;;;45.67;11.20;;;;;;;;;;5044633;28;20570;-59
2023/01/27 12:42:36;;;;;;;28.57;10.20;;;4.80;98.50;;;;;;5041045;28;20475;-59
2023/01/27 12:45:23;;;;;;;24.03;8.10;;;4.80;98.30;;;;;;5048175;28;20491;-59
2023/01/27 12:48:02;;;;;;;30.17;11.00;;;4.70;98.10;;;;;;5066149;27;20480;-59
2023/01/27 12:50:31;;;;;;;19.47;6.70;;;4.70;98.30;;;;;;5043876;28;20473;-59
2023/01/27 12:53:09;;;;;;;38.03;8.73;;;4.70;98.20;;;;;;5087690;27;20477;-60
2023/01/27 12:55:37;;;;;;;31.70;8.60;;;;;;;;;;5035952;28;20550;-59
2023/01/27 12:58:04;;;;;;;30.23;9.23;;;4.70;98.20;;;;;;5069161;28;20521;-59
2023/01/27 13:00:32;;;;;;;33.53;9.33;;;4.60;98.20;;;;;;5052413;27;20517;-59
2023/01/27 13:03:05;;;;;;;30.43;7.87;;;4.60;98.30;;;;;;5063208;27;20488;-59
2023/01/27 13:05:38;;;;;;;32.20;8.93;;;4.60;98.40;;;;;;5073888;28;20617;-59
2023/01/27 13:08:12;;;;;;;29.67;6.37;;;4.50;98.20;;;;;;5061168;27;20826;-59
2023/01/27 13:10:39;;;;;;;35.47;9.07;;;4.50;98.10;;;;;;5052244;27;20471;-59
2023/01/27 13:13:16;;;;;;;29.93;7.97;;;4.40;98.20;;;;;;5076083;28;20876;-59
2023/01/27 13:15:52;;;;;;;64.33;11.40;;;6.40;99.30;;;;;;5036814;28;20474;-59
2023/01/27 13:18:21;;;;;;;59.50;9.67;;;4.40;98.40;;;;;;5066324;28;20949;-59
2023/01/27 13:20:51;;;;;;;100.70;15.30;;;;;;;;;;5059316;28;20913;-59
2023/01/27 13:23:22;;;;;;;25.87;6.87;;;4.40;98.50;;;;;;5058559;28;20478;-59
2023/01/27 13:25:52;;;;;;;69.90;12.80;;;;;;;;;;5067159;27;20485;-59
2023/01/27 13:28:24;;;;;;;62.63;8.30;;;4.40;98.10;;;;;;5075987;27;20477;-59
2023/01/27 13:30:53;;;;;;;55.60;13.27;;;;;;;;;;5054334;28;20478;-59
2023/01/27 13:33:25;;;;;;;37.20;8.00;;;;;;;;;;5070066;27;20485;-59
2023/01/27 13:35:59;;;;;;;49.07;13.10;;;4.50;98.30;;;;;;5049819;28;20662;-59
2023/01/27 13:38:31;;;;;;;26.00;6.73;;;;;;;;;;5049072;28;20507;-59
2023/01/27 13:40:59;;;;;;;31.10;7.93;;;;;;;;;;5069930;28;20926;-59
2023/01/27 13:43:32;;;;;;;19.70;5.63;;;4.40;98.10;;;;;;5060079;28;20465;-59
2023/01/27 13:46:06;;;;;;;25.40;8.47;;;4.40;98.10;;;;;;5062365;28;20560;-60
2023/01/27 13:48:38;;;;;;;24.33;6.53;;;4.40;98.40;;;;;;5059425;28;20479;-59